aviador You're here:

CYRV Decoded Metar

REVELSTOKE AIRPO in BC, CANADA
Report Time2017-12-15 23:00:00
UTC Time2017-12-15 23:41:41
Flight Rules mvfr MVFR
WindCalm
Visibility9999 m
Phenomena:N/A
Clouds:Overcast 029 Hf
Expected CloudBase > 400 ft AGL from Temp-Dew spread
Ceiling2,900 ft
Temp00°C (ISA -12)
Dew Point-1°C (93% RH)
AAT-2.1°C
QNH1019 hPa
Density Alt-144 ft
Elevation1,453 ft
Report Wrong Elevation
Raw Report
CYRV 152300Z AUTO 00000KT 9SM OVC029 00/M01 A3008 RMK SLP206=

Extra information for CYRV:More info

Metar Taf Metar & Taf Last 4 Metars F.Rules Stats Wind Profile Meteogram Temp Stats Airport Information Weather charts Add Link Nearby VenuesMetar ALERT Operation Metar Decoded Social comments